sensor_id;sensor_type;location;lat;lon;timestamp;P1;durP1;ratioP1;P2;durP2;ratioP2
5898;SDS011;2975;50.956;6.962;2023-12-20T00:00:19;8.50;;;7.60;;
5898;SDS011;2975;50.956;6.962;2023-12-20T00:02:45;7.97;;;7.17;;
5898;SDS011;2975;50.956;6.962;2023-12-20T00:05:12;8.73;;;7.30;;
5898;SDS011;2975;50.956;6.962;2023-12-20T00:07:39;8.90;;;7.50;;
5898;SDS011;2975;50.956;6.962;2023-12-20T00:10:04;7.70;;;6.50;;
5898;SDS011;2975;50.956;6.962;2023-12-20T00:12:30;8.37;;;6.87;;
5898;SDS011;2975;50.956;6.962;2023-12-20T00:14:56;9.13;;;7.00;;
5898;SDS011;2975;50.956;6.962;2023-12-20T00:17:21;10.90;;;8.17;;
5898;SDS011;2975;50.956;6.962;2023-12-20T00:19:47;9.70;;;7.83;;
5898;SDS011;2975;50.956;6.962;2023-12-20T00:22:12;10.17;;;7.50;;
5898;SDS011;2975;50.956;6.962;2023-12-20T00:24:38;7.27;;;6.50;;
5898;SDS011;2975;50.956;6.962;2023-12-20T00:27:04;8.83;;;7.67;;
5898;SDS011;2975;50.956;6.962;2023-12-20T00:29:29;8.47;;;7.00;;
5898;SDS011;2975;50.956;6.962;2023-12-20T00:31:55;8.03;;;6.80;;
5898;SDS011;2975;50.956;6.962;2023-12-20T00:34:20;7.10;;;5.87;;
5898;SDS011;2975;50.956;6.962;2023-12-20T00:36:46;6.67;;;4.87;;
5898;SDS011;2975;50.956;6.962;2023-12-20T00:39:12;6.10;;;5.00;;
5898;SDS011;2975;50.956;6.962;2023-12-20T00:41:38;15.90;;;5.00;;
5898;SDS011;2975;50.956;6.962;2023-12-20T00:44:04;5.83;;;4.13;;
5898;SDS011;2975;50.956;6.962;2023-12-20T00:46:30;4.77;;;3.87;;
5898;SDS011;2975;50.956;6.962;2023-12-20T00:48:55;5.07;;;4.53;;
5898;SDS011;2975;50.956;6.962;2023-12-20T00:51:21;4.67;;;3.67;;
5898;SDS011;2975;50.956;6.962;2023-12-20T00:53:47;4.43;;;3.53;;
5898;SDS011;2975;50.956;6.962;2023-12-20T00:56:14;6.57;;;3.87;;
5898;SDS011;2975;50.956;6.962;2023-12-20T00:58:40;5.90;;;4.13;;
5898;SDS011;2975;50.956;6.962;2023-12-20T01:01:05;5.90;;;3.73;;
5898;SDS011;2975;50.956;6.962;2023-12-20T01:03:31;6.20;;;3.63;;
5898;SDS011;2975;50.956;6.962;2023-12-20T01:05:56;3.60;;;3.07;;
5898;SDS011;2975;50.956;6.962;2023-12-20T01:08:22;5.10;;;3.50;;
5898;SDS011;2975;50.956;6.962;2023-12-20T01:10:48;3.70;;;3.17;;
5898;SDS011;2975;50.956;6.962;2023-12-20T01:13:13;4.23;;;3.10;;
5898;SDS011;2975;50.956;6.962;2023-12-20T01:15:39;4.73;;;3.00;;
5898;SDS011;2975;50.956;6.962;2023-12-20T01:18:04;5.20;;;3.33;;
5898;SDS011;2975;50.956;6.962;2023-12-20T01:20:30;4.07;;;2.93;;
5898;SDS011;2975;50.956;6.962;2023-12-20T01:22:56;3.97;;;3.07;;
5898;SDS011;2975;50.956;6.962;2023-12-20T01:25:21;4.53;;;3.00;;
5898;SDS011;2975;50.956;6.962;2023-12-20T01:27:47;4.27;;;3.40;;
5898;SDS011;2975;50.956;6.962;2023-12-20T01:30:13;6.07;;;3.53;;
5898;SDS011;2975;50.956;6.962;2023-12-20T01:32:39;8.27;;;4.27;;
5898;SDS011;2975;50.956;6.962;2023-12-20T01:35:04;7.97;;;4.23;;
5898;SDS011;2975;50.956;6.962;2023-12-20T01:37:30;6.47;;;4.73;;
5898;SDS011;2975;50.956;6.962;2023-12-20T01:39:56;9.63;;;5.70;;
5898;SDS011;2975;50.956;6.962;2023-12-20T01:42:21;13.13;;;6.70;;
5898;SDS011;2975;50.956;6.962;2023-12-20T01:44:47;12.40;;;7.27;;
5898;SDS011;2975;50.956;6.962;2023-12-20T01:47:13;10.43;;;6.87;;
5898;SDS011;2975;50.956;6.962;2023-12-20T01:49:39;13.40;;;7.63;;
5898;SDS011;2975;50.956;6.962;2023-12-20T01:52:04;13.93;;;8.30;;
5898;SDS011;2975;50.956;6.962;2023-12-20T01:54:31;17.63;;;7.83;;
5898;SDS011;2975;50.956;6.962;2023-12-20T01:56:57;19.20;;;9.23;;
5898;SDS011;2975;50.956;6.962;2023-12-20T01:59:22;11.70;;;8.40;;
5898;SDS011;2975;50.956;6.962;2023-12-20T02:01:48;14.97;;;8.70;;
5898;SDS011;2975;50.956;6.962;2023-12-20T02:04:14;15.00;;;7.77;;
5898;SDS011;2975;50.956;6.962;2023-12-20T02:06:40;17.50;;;8.50;;
5898;SDS011;2975;50.956;6.962;2023-12-20T02:09:07;17.40;;;8.87;;
5898;SDS011;2975;50.956;6.962;2023-12-20T02:11:33;12.77;;;8.33;;
5898;SDS011;2975;50.956;6.962;2023-12-20T02:14:01;21.70;;;9.13;;
5898;SDS011;2975;50.956;6.962;2023-12-20T02:16:26;12.00;;;8.50;;
5898;SDS011;2975;50.956;6.962;2023-12-20T02:18:52;17.83;;;8.90;;
5898;SDS011;2975;50.956;6.962;2023-12-20T02:21:18;13.17;;;8.37;;
5898;SDS011;2975;50.956;6.962;2023-12-20T02:23:45;10.67;;;6.70;;
5898;SDS011;2975;50.956;6.962;2023-12-20T02:26:11;15.77;;;7.20;;
5898;SDS011;2975;50.956;6.962;2023-12-20T02:28:38;12.63;;;7.03;;
5898;SDS011;2975;50.956;6.962;2023-12-20T02:31:04;14.70;;;6.50;;
5898;SDS011;2975;50.956;6.962;2023-12-20T02:33:30;14.33;;;5.57;;
5898;SDS011;2975;50.956;6.962;2023-12-20T02:35:55;18.37;;;6.37;;
5898;SDS011;2975;50.956;6.962;2023-12-20T02:38:21;10.80;;;4.80;;
5898;SDS011;2975;50.956;6.962;2023-12-20T02:40:46;8.67;;;4.60;;
5898;SDS011;2975;50.956;6.962;2023-12-20T02:43:12;17.43;;;4.47;;
5898;SDS011;2975;50.956;6.962;2023-12-20T02:45:37;11.50;;;4.37;;
5898;SDS011;2975;50.956;6.962;2023-12-20T02:48:03;13.07;;;4.17;;
5898;SDS011;2975;50.956;6.962;2023-12-20T02:50:29;12.10;;;4.50;;
5898;SDS011;2975;50.956;6.962;2023-12-20T02:52:54;11.20;;;3.90;;
5898;SDS011;2975;50.956;6.962;2023-12-20T02:55:20;12.90;;;4.07;;
5898;SDS011;2975;50.956;6.962;2023-12-20T02:57:46;8.83;;;3.73;;
5898;SDS011;2975;50.956;6.962;2023-12-20T03:00:11;9.10;;;3.93;;
5898;SDS011;2975;50.956;6.962;2023-12-20T03:02:37;10.57;;;3.97;;
5898;SDS011;2975;50.956;6.962;2023-12-20T03:05:03;17.37;;;4.60;;
5898;SDS011;2975;50.956;6.962;2023-12-20T03:07:28;13.60;;;3.50;;
5898;SDS011;2975;50.956;6.962;2023-12-20T03:09:54;12.17;;;3.37;;
5898;SDS011;2975;50.956;6.962;2023-12-20T03:12:20;7.03;;;2.60;;
5898;SDS011;2975;50.956;6.962;2023-12-20T03:14:45;6.97;;;2.70;;
5898;SDS011;2975;50.956;6.962;2023-12-20T03:17:11;10.50;;;2.30;;
5898;SDS011;2975;50.956;6.962;2023-12-20T03:19:37;10.13;;;2.10;;
5898;SDS011;2975;50.956;6.962;2023-12-20T03:22:03;10.13;;;2.77;;
5898;SDS011;2975;50.956;6.962;2023-12-20T03:24:28;11.60;;;2.30;;
5898;SDS011;2975;50.956;6.962;2023-12-20T03:26:54;10.30;;;2.10;;
5898;SDS011;2975;50.956;6.962;2023-12-20T03:29:20;4.47;;;2.00;;
5898;SDS011;2975;50.956;6.962;2023-12-20T03:31:45;8.83;;;2.30;;
5898;SDS011;2975;50.956;6.962;2023-12-20T03:34:11;10.07;;;2.63;;
5898;SDS011;2975;50.956;6.962;2023-12-20T03:36:37;15.60;;;2.40;;
5898;SDS011;2975;50.956;6.962;2023-12-20T03:39:02;10.70;;;2.43;;
5898;SDS011;2975;50.956;6.962;2023-12-20T03:41:28;8.47;;;1.93;;
5898;SDS011;2975;50.956;6.962;2023-12-20T03:43:54;8.60;;;1.87;;
5898;SDS011;2975;50.956;6.962;2023-12-20T03:46:19;8.20;;;2.23;;
5898;SDS011;2975;50.956;6.962;2023-12-20T03:48:45;9.30;;;2.20;;
5898;SDS011;2975;50.956;6.962;2023-12-20T03:51:10;13.57;;;2.00;;
5898;SDS011;2975;50.956;6.962;2023-12-20T03:53:36;9.83;;;2.40;;
5898;SDS011;2975;50.956;6.962;2023-12-20T03:56:01;8.73;;;2.43;;
5898;SDS011;2975;50.956;6.962;2023-12-20T03:58:27;14.90;;;2.50;;
5898;SDS011;2975;50.956;6.962;2023-12-20T04:00:53;8.83;;;2.33;;
5898;SDS011;2975;50.956;6.962;2023-12-20T04:03:18;18.17;;;2.50;;
5898;SDS011;2975;50.956;6.962;2023-12-20T04:05:44;9.13;;;2.47;;
5898;SDS011;2975;50.956;6.962;2023-12-20T04:08:09;11.57;;;2.67;;
5898;SDS011;2975;50.956;6.962;2023-12-20T04:10:36;14.57;;;3.07;;
5898;SDS011;2975;50.956;6.962;2023-12-20T04:13:02;7.87;;;2.43;;
5898;SDS011;2975;50.956;6.962;2023-12-20T04:15:28;12.67;;;2.70;;
5898;SDS011;2975;50.956;6.962;2023-12-20T04:17:54;10.63;;;2.97;;
5898;SDS011;2975;50.956;6.962;2023-12-20T04:20:21;13.30;;;3.00;;
5898;SDS011;2975;50.956;6.962;2023-12-20T04:22:47;9.90;;;3.00;;
5898;SDS011;2975;50.956;6.962;2023-12-20T04:25:13;15.83;;;3.07;;
5898;SDS011;2975;50.956;6.962;2023-12-20T04:27:38;9.77;;;2.73;;
5898;SDS011;2975;50.956;6.962;2023-12-20T04:30:04;10.70;;;2.87;;
5898;SDS011;2975;50.956;6.962;2023-12-20T04:32:30;12.97;;;3.03;;
5898;SDS011;2975;50.956;6.962;2023-12-20T04:34:56;9.17;;;3.43;;
5898;SDS011;2975;50.956;6.962;2023-12-20T04:37:22;11.53;;;2.47;;
5898;SDS011;2975;50.956;6.962;2023-12-20T04:39:47;13.47;;;3.57;;
5898;SDS011;2975;50.956;6.962;2023-12-20T04:42:13;13.07;;;2.90;;
5898;SDS011;2975;50.956;6.962;2023-12-20T04:44:39;14.87;;;3.30;;
5898;SDS011;2975;50.956;6.962;2023-12-20T04:47:04;11.70;;;3.13;;
5898;SDS011;2975;50.956;6.962;2023-12-20T04:49:30;17.70;;;2.83;;
5898;SDS011;2975;50.956;6.962;2023-12-20T04:51:55;11.93;;;3.10;;
5898;SDS011;2975;50.956;6.962;2023-12-20T04:54:21;7.40;;;2.80;;
5898;SDS011;2975;50.956;6.962;2023-12-20T04:56:47;10.30;;;3.07;;
5898;SDS011;2975;50.956;6.962;2023-12-20T04:59:12;18.10;;;3.67;;
5898;SDS011;2975;50.956;6.962;2023-12-20T05:01:38;15.73;;;3.53;;
5898;SDS011;2975;50.956;6.962;2023-12-20T05:04:04;9.37;;;3.20;;
5898;SDS011;2975;50.956;6.962;2023-12-20T05:06:30;8.20;;;3.27;;
5898;SDS011;2975;50.956;6.962;2023-12-20T05:08:55;11.13;;;2.60;;
5898;SDS011;2975;50.956;6.962;2023-12-20T05:11:21;14.37;;;2.77;;
5898;SDS011;2975;50.956;6.962;2023-12-20T05:13:46;14.23;;;3.03;;
5898;SDS011;2975;50.956;6.962;2023-12-20T05:16:12;13.17;;;2.80;;
5898;SDS011;2975;50.956;6.962;2023-12-20T05:18:39;8.70;;;3.17;;
5898;SDS011;2975;50.956;6.962;2023-12-20T05:21:05;15.97;;;3.37;;
5898;SDS011;2975;50.956;6.962;2023-12-20T05:23:30;7.53;;;3.17;;
5898;SDS011;2975;50.956;6.962;2023-12-20T05:25:56;9.97;;;2.80;;
5898;SDS011;2975;50.956;6.962;2023-12-20T05:28:21;13.27;;;3.07;;
5898;SDS011;2975;50.956;6.962;2023-12-20T05:30:47;11.03;;;2.80;;
5898;SDS011;2975;50.956;6.962;2023-12-20T05:33:13;13.27;;;3.10;;
5898;SDS011;2975;50.956;6.962;2023-12-20T05:35:38;11.77;;;2.77;;
5898;SDS011;2975;50.956;6.962;2023-12-20T05:38:04;15.80;;;3.53;;
5898;SDS011;2975;50.956;6.962;2023-12-20T05:40:30;13.43;;;3.03;;
5898;SDS011;2975;50.956;6.962;2023-12-20T05:42:55;7.80;;;2.40;;
5898;SDS011;2975;50.956;6.962;2023-12-20T05:45:21;12.87;;;3.07;;
5898;SDS011;2975;50.956;6.962;2023-12-20T05:47:46;11.10;;;3.23;;
5898;SDS011;2975;50.956;6.962;2023-12-20T05:50:12;10.03;;;3.13;;
5898;SDS011;2975;50.956;6.962;2023-12-20T05:52:37;10.30;;;3.10;;
5898;SDS011;2975;50.956;6.962;2023-12-20T05:55:03;9.10;;;3.47;;
5898;SDS011;2975;50.956;6.962;2023-12-20T05:57:29;14.70;;;3.70;;
5898;SDS011;2975;50.956;6.962;2023-12-20T05:59:54;8.00;;;3.10;;
5898;SDS011;2975;50.956;6.962;2023-12-20T06:02:20;15.00;;;3.13;;
5898;SDS011;2975;50.956;6.962;2023-12-20T06:04:46;12.80;;;3.67;;
5898;SDS011;2975;50.956;6.962;2023-12-20T06:07:12;16.50;;;3.57;;
5898;SDS011;2975;50.956;6.962;2023-12-20T06:09:38;11.20;;;4.67;;
5898;SDS011;2975;50.956;6.962;2023-12-20T06:12:04;12.43;;;3.10;;
5898;SDS011;2975;50.956;6.962;2023-12-20T06:14:30;19.10;;;5.20;;
5898;SDS011;2975;50.956;6.962;2023-12-20T06:16:56;12.07;;;3.30;;
5898;SDS011;2975;50.956;6.962;2023-12-20T06:19:22;10.23;;;3.70;;
5898;SDS011;2975;50.956;6.962;2023-12-20T06:21:48;16.93;;;4.03;;
5898;SDS011;2975;50.956;6.962;2023-12-20T06:24:13;15.83;;;3.27;;
5898;SDS011;2975;50.956;6.962;2023-12-20T06:26:39;18.17;;;3.23;;
5898;SDS011;2975;50.956;6.962;2023-12-20T06:29:04;9.80;;;2.80;;
5898;SDS011;2975;50.956;6.962;2023-12-20T06:31:30;13.97;;;3.30;;
5898;SDS011;2975;50.956;6.962;2023-12-20T06:33:57;16.97;;;3.70;;
5898;SDS011;2975;50.956;6.962;2023-12-20T06:36:24;12.17;;;4.40;;
5898;SDS011;2975;50.956;6.962;2023-12-20T06:38:51;10.80;;;2.87;;
5898;SDS011;2975;50.956;6.962;2023-12-20T06:41:16;13.87;;;3.70;;
5898;SDS011;2975;50.956;6.962;2023-12-20T06:43:42;13.07;;;3.70;;
5898;SDS011;2975;50.956;6.962;2023-12-20T06:46:08;14.20;;;4.03;;
5898;SDS011;2975;50.956;6.962;2023-12-20T06:48:34;15.57;;;3.93;;
5898;SDS011;2975;50.956;6.962;2023-12-20T06:51:02;13.13;;;2.70;;
5898;SDS011;2975;50.956;6.962;2023-12-20T06:53:28;11.83;;;3.33;;
5898;SDS011;2975;50.956;6.962;2023-12-20T06:55:53;9.50;;;2.20;;
5898;SDS011;2975;50.956;6.962;2023-12-20T06:58:21;8.37;;;2.83;;
5898;SDS011;2975;50.956;6.962;2023-12-20T07:00:47;14.30;;;2.83;;
5898;SDS011;2975;50.956;6.962;2023-12-20T07:03:12;10.70;;;4.20;;
5898;SDS011;2975;50.956;6.962;2023-12-20T07:05:38;13.97;;;3.03;;
5898;SDS011;2975;50.956;6.962;2023-12-20T07:08:04;11.27;;;3.10;;
5898;SDS011;2975;50.956;6.962;2023-12-20T07:10:30;12.37;;;3.00;;
5898;SDS011;2975;50.956;6.962;2023-12-20T07:12:55;9.27;;;2.97;;
5898;SDS011;2975;50.956;6.962;2023-12-20T07:15:21;13.47;;;3.53;;
5898;SDS011;2975;50.956;6.962;2023-12-20T07:17:47;14.93;;;3.00;;
5898;SDS011;2975;50.956;6.962;2023-12-20T07:20:12;11.87;;;2.93;;
5898;SDS011;2975;50.956;6.962;2023-12-20T07:22:38;15.93;;;3.20;;
5898;SDS011;2975;50.956;6.962;2023-12-20T07:25:04;13.77;;;3.03;;
5898;SDS011;2975;50.956;6.962;2023-12-20T07:27:30;15.33;;;2.80;;
5898;SDS011;2975;50.956;6.962;2023-12-20T07:29:56;10.10;;;2.40;;
5898;SDS011;2975;50.956;6.962;2023-12-20T07:32:21;14.93;;;3.10;;
5898;SDS011;2975;50.956;6.962;2023-12-20T07:34:47;15.07;;;3.70;;
5898;SDS011;2975;50.956;6.962;2023-12-20T07:37:12;13.10;;;2.83;;
5898;SDS011;2975;50.956;6.962;2023-12-20T07:39:41;10.07;;;3.33;;
5898;SDS011;2975;50.956;6.962;2023-12-20T07:42:07;12.00;;;3.53;;
5898;SDS011;2975;50.956;6.962;2023-12-20T07:44:33;16.27;;;3.13;;
5898;SDS011;2975;50.956;6.962;2023-12-20T07:47:00;11.20;;;3.03;;
5898;SDS011;2975;50.956;6.962;2023-12-20T07:49:26;8.80;;;3.23;;
5898;SDS011;2975;50.956;6.962;2023-12-20T07:51:52;11.43;;;3.53;;
5898;SDS011;2975;50.956;6.962;2023-12-20T07:54:17;10.40;;;3.30;;
5898;SDS011;2975;50.956;6.962;2023-12-20T07:56:43;9.73;;;3.20;;
5898;SDS011;2975;50.956;6.962;2023-12-20T07:59:09;10.97;;;3.40;;
5898;SDS011;2975;50.956;6.962;2023-12-20T08:01:34;14.93;;;3.87;;
5898;SDS011;2975;50.956;6.962;2023-12-20T08:04:00;22.67;;;3.47;;
5898;SDS011;2975;50.956;6.962;2023-12-20T08:06:25;10.33;;;3.50;;
5898;SDS011;2975;50.956;6.962;2023-12-20T08:08:51;15.50;;;3.63;;
5898;SDS011;2975;50.956;6.962;2023-12-20T08:11:16;19.07;;;3.80;;
5898;SDS011;2975;50.956;6.962;2023-12-20T08:23:48;16.70;;;3.30;;
5898;SDS011;2975;50.956;6.962;2023-12-20T08:26:14;12.50;;;3.30;;
5898;SDS011;2975;50.956;6.962;2023-12-20T08:28:46;18.57;;;3.10;;
5898;SDS011;2975;50.956;6.962;2023-12-20T08:31:14;11.00;;;3.17;;
5898;SDS011;2975;50.956;6.962;2023-12-20T08:33:44;11.40;;;3.60;;
5898;SDS011;2975;50.956;6.962;2023-12-20T08:36:10;17.17;;;3.27;;
5898;SDS011;2975;50.956;6.962;2023-12-20T08:38:36;13.73;;;3.40;;
5898;SDS011;2975;50.956;6.962;2023-12-20T08:41:02;15.23;;;3.77;;
5898;SDS011;2975;50.956;6.962;2023-12-20T08:43:30;14.37;;;3.33;;
5898;SDS011;2975;50.956;6.962;2023-12-20T08:45:56;14.40;;;3.30;;
5898;SDS011;2975;50.956;6.962;2023-12-20T08:48:22;12.53;;;3.37;;
5898;SDS011;2975;50.956;6.962;2023-12-20T08:50:47;14.70;;;3.20;;
5898;SDS011;2975;50.956;6.962;2023-12-20T08:53:15;15.00;;;2.97;;
5898;SDS011;2975;50.956;6.962;2023-12-20T08:55:41;18.17;;;3.17;;
5898;SDS011;2975;50.956;6.962;2023-12-20T08:58:07;8.67;;;3.20;;
5898;SDS011;2975;50.956;6.962;2023-12-20T09:00:33;11.83;;;3.90;;
5898;SDS011;2975;50.956;6.962;2023-12-20T09:02:59;12.00;;;3.30;;
5898;SDS011;2975;50.956;6.962;2023-12-20T09:05:26;13.90;;;3.27;;
5898;SDS011;2975;50.956;6.962;2023-12-20T09:07:51;13.10;;;3.77;;
5898;SDS011;2975;50.956;6.962;2023-12-20T09:10:17;12.80;;;3.20;;
5898;SDS011;2975;50.956;6.962;2023-12-20T09:12:47;8.50;;;2.83;;
5898;SDS011;2975;50.956;6.962;2023-12-20T09:15:13;13.67;;;3.10;;
5898;SDS011;2975;50.956;6.962;2023-12-20T09:17:39;13.07;;;2.80;;
5898;SDS011;2975;50.956;6.962;2023-12-20T09:20:06;11.00;;;3.10;;
5898;SDS011;2975;50.956;6.962;2023-12-20T09:22:33;10.83;;;2.70;;
5898;SDS011;2975;50.956;6.962;2023-12-20T09:24:59;12.10;;;3.23;;
5898;SDS011;2975;50.956;6.962;2023-12-20T09:27:25;16.00;;;2.63;;
5898;SDS011;2975;50.956;6.962;2023-12-20T09:29:51;12.63;;;2.67;;
5898;SDS011;2975;50.956;6.962;2023-12-20T09:32:18;15.50;;;3.10;;
5898;SDS011;2975;50.956;6.962;2023-12-20T09:34:45;13.00;;;2.77;;
5898;SDS011;2975;50.956;6.962;2023-12-20T09:37:11;8.83;;;2.90;;
5898;SDS011;2975;50.956;6.962;2023-12-20T09:39:36;14.23;;;3.53;;
5898;SDS011;2975;50.956;6.962;2023-12-20T09:42:03;12.63;;;2.40;;
5898;SDS011;2975;50.956;6.962;2023-12-20T09:44:29;17.87;;;3.57;;
5898;SDS011;2975;50.956;6.962;2023-12-20T09:46:56;8.93;;;2.33;;
5898;SDS011;2975;50.956;6.962;2023-12-20T09:49:22;13.10;;;3.33;;
5898;SDS011;2975;50.956;6.962;2023-12-20T09:51:48;16.37;;;3.00;;
5898;SDS011;2975;50.956;6.962;2023-12-20T09:54:18;12.90;;;3.07;;
5898;SDS011;2975;50.956;6.962;2023-12-20T09:56:45;12.50;;;3.70;;
5898;SDS011;2975;50.956;6.962;2023-12-20T09:59:11;9.87;;;3.00;;
5898;SDS011;2975;50.956;6.962;2023-12-20T10:01:38;13.40;;;2.67;;
5898;SDS011;2975;50.956;6.962;2023-12-20T10:04:05;9.63;;;2.63;;
5898;SDS011;2975;50.956;6.962;2023-12-20T10:06:37;9.73;;;2.53;;
5898;SDS011;2975;50.956;6.962;2023-12-20T10:09:04;13.53;;;3.67;;
5898;SDS011;2975;50.956;6.962;2023-12-20T10:11:30;8.37;;;2.53;;
5898;SDS011;2975;50.956;6.962;2023-12-20T10:13:59;11.23;;;2.67;;
5898;SDS011;2975;50.956;6.962;2023-12-20T10:16:28;12.87;;;2.60;;
5898;SDS011;2975;50.956;6.962;2023-12-20T10:18:54;13.87;;;2.67;;
5898;SDS011;2975;50.956;6.962;2023-12-20T10:21:21;10.93;;;2.37;;
5898;SDS011;2975;50.956;6.962;2023-12-20T10:23:47;11.77;;;3.10;;
5898;SDS011;2975;50.956;6.962;2023-12-20T10:26:21;13.60;;;2.57;;
5898;SDS011;2975;50.956;6.962;2023-12-20T10:28:51;8.40;;;2.73;;
5898;SDS011;2975;50.956;6.962;2023-12-20T10:31:52;14.80;;;3.10;;
5898;SDS011;2975;50.956;6.962;2023-12-20T10:34:10;11.27;;;2.37;;
5898;SDS011;2975;50.956;6.962;2023-12-20T10:36:36;11.63;;;2.70;;
5898;SDS011;2975;50.956;6.962;2023-12-20T10:39:02;10.53;;;2.90;;
5898;SDS011;2975;50.956;6.962;2023-12-20T10:41:29;12.47;;;2.87;;
5898;SDS011;2975;50.956;6.962;2023-12-20T10:43:58;11.30;;;3.10;;
5898;SDS011;2975;50.956;6.962;2023-12-20T10:46:26;11.17;;;2.60;;
5898;SDS011;2975;50.956;6.962;2023-12-20T10:48:53;9.53;;;2.40;;
5898;SDS011;2975;50.956;6.962;2023-12-20T10:51:20;13.53;;;4.00;;
5898;SDS011;2975;50.956;6.962;2023-12-20T10:53:48;11.57;;;2.80;;
5898;SDS011;2975;50.956;6.962;2023-12-20T10:56:15;10.60;;;3.67;;
5898;SDS011;2975;50.956;6.962;2023-12-20T10:58:49;12.63;;;2.33;;
5898;SDS011;2975;50.956;6.962;2023-12-20T11:01:15;11.60;;;2.83;;
5898;SDS011;2975;50.956;6.962;2023-12-20T11:03:44;15.57;;;2.33;;
5898;SDS011;2975;50.956;6.962;2023-12-20T11:06:18;10.20;;;2.30;;
5898;SDS011;2975;50.956;6.962;2023-12-20T11:08:50;9.87;;;2.77;;
5898;SDS011;2975;50.956;6.962;2023-12-20T11:11:26;13.90;;;2.77;;
5898;SDS011;2975;50.956;6.962;2023-12-20T11:14:00;10.60;;;2.37;;
5898;SDS011;2975;50.956;6.962;2023-12-20T11:16:33;14.07;;;3.30;;
5898;SDS011;2975;50.956;6.962;2023-12-20T11:19:05;11.87;;;2.53;;
5898;SDS011;2975;50.956;6.962;2023-12-20T11:21:31;11.10;;;2.47;;
5898;SDS011;2975;50.956;6.962;2023-12-20T11:23:56;11.03;;;2.57;;
5898;SDS011;2975;50.956;6.962;2023-12-20T11:26:22;15.70;;;2.33;;
5898;SDS011;2975;50.956;6.962;2023-12-20T11:28:53;8.20;;;2.40;;
5898;SDS011;2975;50.956;6.962;2023-12-20T11:31:19;7.23;;;2.37;;
5898;SDS011;2975;50.956;6.962;2023-12-20T11:33:44;10.17;;;2.57;;
5898;SDS011;2975;50.956;6.962;2023-12-20T11:36:14;11.30;;;2.30;;
5898;SDS011;2975;50.956;6.962;2023-12-20T11:38:56;12.23;;;2.70;;
5898;SDS011;2975;50.956;6.962;2023-12-20T11:41:23;9.50;;;2.53;;
5898;SDS011;2975;50.956;6.962;2023-12-20T11:43:55;8.33;;;2.20;;
5898;SDS011;2975;50.956;6.962;2023-12-20T11:46:21;8.77;;;2.43;;
5898;SDS011;2975;50.956;6.962;2023-12-20T11:48:47;11.03;;;2.67;;
5898;SDS011;2975;50.956;6.962;2023-12-20T11:51:13;10.63;;;2.27;;
5898;SDS011;2975;50.956;6.962;2023-12-20T11:53:42;10.47;;;2.70;;
5898;SDS011;2975;50.956;6.962;2023-12-20T11:56:08;10.13;;;2.47;;
5898;SDS011;2975;50.956;6.962;2023-12-20T11:58:34;9.90;;;2.10;;
5898;SDS011;2975;50.956;6.962;2023-12-20T12:01:00;8.60;;;2.43;;
5898;SDS011;2975;50.956;6.962;2023-12-20T12:03:29;9.00;;;2.17;;
5898;SDS011;2975;50.956;6.962;2023-12-20T12:05:55;13.53;;;2.80;;
5898;SDS011;2975;50.956;6.962;2023-12-20T12:08:21;7.37;;;2.40;;
5898;SDS011;2975;50.956;6.962;2023-12-20T12:10:46;6.70;;;1.87;;
5898;SDS011;2975;50.956;6.962;2023-12-20T12:13:12;10.63;;;2.43;;
5898;SDS011;2975;50.956;6.962;2023-12-20T12:15:39;8.13;;;2.37;;
5898;SDS011;2975;50.956;6.962;2023-12-20T12:18:05;9.07;;;2.23;;
5898;SDS011;2975;50.956;6.962;2023-12-20T12:20:30;10.97;;;2.90;;
5898;SDS011;2975;50.956;6.962;2023-12-20T12:22:57;14.53;;;2.50;;
5898;SDS011;2975;50.956;6.962;2023-12-20T12:25:26;9.60;;;2.20;;
5898;SDS011;2975;50.956;6.962;2023-12-20T12:27:54;8.43;;;2.33;;
5898;SDS011;2975;50.956;6.962;2023-12-20T12:30:20;11.43;;;2.40;;
5898;SDS011;2975;50.956;6.962;2023-12-20T12:32:46;12.23;;;2.73;;
5898;SDS011;2975;50.956;6.962;2023-12-20T12:35:12;8.87;;;2.30;;
5898;SDS011;2975;50.956;6.962;2023-12-20T12:37:39;9.80;;;2.53;;
5898;SDS011;2975;50.956;6.962;2023-12-20T12:40:06;14.30;;;2.40;;
5898;SDS011;2975;50.956;6.962;2023-12-20T12:42:34;5.50;;;2.40;;
5898;SDS011;2975;50.956;6.962;2023-12-20T12:45:01;11.90;;;3.07;;
5898;SDS011;2975;50.956;6.962;2023-12-20T12:47:26;15.47;;;3.67;;
5898;SDS011;2975;50.956;6.962;2023-12-20T12:49:52;13.57;;;3.67;;
5898;SDS011;2975;50.956;6.962;2023-12-20T12:52:18;13.67;;;2.70;;
5898;SDS011;2975;50.956;6.962;2023-12-20T12:54:44;10.33;;;2.53;;
5898;SDS011;2975;50.956;6.962;2023-12-20T12:57:10;9.57;;;2.53;;
5898;SDS011;2975;50.956;6.962;2023-12-20T12:59:36;10.97;;;3.13;;
5898;SDS011;2975;50.956;6.962;2023-12-20T13:02:02;6.80;;;2.43;;
5898;SDS011;2975;50.956;6.962;2023-12-20T13:04:27;11.17;;;2.40;;
5898;SDS011;2975;50.956;6.962;2023-12-20T13:06:53;8.80;;;2.60;;
5898;SDS011;2975;50.956;6.962;2023-12-20T13:09:19;7.63;;;2.67;;
5898;SDS011;2975;50.956;6.962;2023-12-20T13:11:44;10.43;;;2.60;;
5898;SDS011;2975;50.956;6.962;2023-12-20T13:14:10;5.97;;;2.30;;
5898;SDS011;2975;50.956;6.962;2023-12-20T13:16:40;10.27;;;2.77;;
5898;SDS011;2975;50.956;6.962;2023-12-20T13:19:06;10.87;;;2.83;;
5898;SDS011;2975;50.956;6.962;2023-12-20T13:21:32;7.70;;;2.23;;
5898;SDS011;2975;50.956;6.962;2023-12-20T13:23:58;11.03;;;3.10;;
5898;SDS011;2975;50.956;6.962;2023-12-20T13:26:23;15.80;;;3.03;;
5898;SDS011;2975;50.956;6.962;2023-12-20T13:28:49;9.43;;;2.43;;
5898;SDS011;2975;50.956;6.962;2023-12-20T13:31:14;14.43;;;2.30;;
5898;SDS011;2975;50.956;6.962;2023-12-20T13:33:40;9.37;;;2.67;;
5898;SDS011;2975;50.956;6.962;2023-12-20T13:36:05;11.13;;;2.50;;
5898;SDS011;2975;50.956;6.962;2023-12-20T13:38:31;6.87;;;2.43;;
5898;SDS011;2975;50.956;6.962;2023-12-20T13:40:58;9.93;;;2.30;;
5898;SDS011;2975;50.956;6.962;2023-12-20T13:43:24;5.27;;;2.20;;
5898;SDS011;2975;50.956;6.962;2023-12-20T13:45:50;6.63;;;2.00;;
5898;SDS011;2975;50.956;6.962;2023-12-20T13:48:16;12.60;;;3.00;;
5898;SDS011;2975;50.956;6.962;2023-12-20T13:50:42;7.90;;;2.20;;
5898;SDS011;2975;50.956;6.962;2023-12-20T13:53:07;15.20;;;2.67;;
5898;SDS011;2975;50.956;6.962;2023-12-20T13:55:33;7.00;;;2.30;;
5898;SDS011;2975;50.956;6.962;2023-12-20T13:57:58;13.40;;;3.17;;
5898;SDS011;2975;50.956;6.962;2023-12-20T14:00:24;6.23;;;2.20;;
5898;SDS011;2975;50.956;6.962;2023-12-20T14:02:50;12.77;;;2.50;;
5898;SDS011;2975;50.956;6.962;2023-12-20T14:05:16;9.37;;;2.37;;
5898;SDS011;2975;50.956;6.962;2023-12-20T14:07:44;7.80;;;2.53;;
5898;SDS011;2975;50.956;6.962;2023-12-20T14:10:11;4.77;;;2.13;;
5898;SDS011;2975;50.956;6.962;2023-12-20T14:12:38;13.07;;;3.13;;
5898;SDS011;2975;50.956;6.962;2023-12-20T14:15:04;7.17;;;2.27;;
5898;SDS011;2975;50.956;6.962;2023-12-20T14:17:34;12.23;;;3.13;;
5898;SDS011;2975;50.956;6.962;2023-12-20T14:20:00;11.73;;;2.77;;
5898;SDS011;2975;50.956;6.962;2023-12-20T14:22:25;6.33;;;2.37;;
5898;SDS011;2975;50.956;6.962;2023-12-20T14:24:51;6.67;;;2.83;;
5898;SDS011;2975;50.956;6.962;2023-12-20T14:27:17;9.60;;;2.57;;
5898;SDS011;2975;50.956;6.962;2023-12-20T14:29:42;13.00;;;2.40;;
5898;SDS011;2975;50.956;6.962;2023-12-20T14:32:08;7.03;;;2.07;;
5898;SDS011;2975;50.956;6.962;2023-12-20T14:34:33;5.80;;;2.00;;
5898;SDS011;2975;50.956;6.962;2023-12-20T14:36:59;8.77;;;3.47;;
5898;SDS011;2975;50.956;6.962;2023-12-20T14:39:25;14.07;;;3.30;;
5898;SDS011;2975;50.956;6.962;2023-12-20T14:41:50;9.83;;;2.50;;
5898;SDS011;2975;50.956;6.962;2023-12-20T14:44:16;8.10;;;2.20;;
5898;SDS011;2975;50.956;6.962;2023-12-20T14:46:42;7.17;;;2.13;;
5898;SDS011;2975;50.956;6.962;2023-12-20T14:49:08;7.87;;;2.70;;
5898;SDS011;2975;50.956;6.962;2023-12-20T14:51:33;10.37;;;2.53;;
5898;SDS011;2975;50.956;6.962;2023-12-20T14:54:00;10.10;;;2.50;;
5898;SDS011;2975;50.956;6.962;2023-12-20T14:56:26;12.13;;;3.20;;
5898;SDS011;2975;50.956;6.962;2023-12-20T14:58:52;7.93;;;2.80;;
5898;SDS011;2975;50.956;6.962;2023-12-20T15:01:18;8.27;;;2.23;;
5898;SDS011;2975;50.956;6.962;2023-12-20T15:03:46;7.63;;;2.37;;
5898;SDS011;2975;50.956;6.962;2023-12-20T15:06:12;10.17;;;2.87;;
5898;SDS011;2975;50.956;6.962;2023-12-20T15:08:38;9.93;;;2.37;;
5898;SDS011;2975;50.956;6.962;2023-12-20T15:11:03;13.60;;;3.10;;